sensor_id;sensor_type;location;lat;lon;timestamp;P1;P2;P0
77692;PMS5003;66984;47.404;18.836;2023-04-24T00:00:42;23.50;23.50;14.00
77692;PMS5003;66984;47.404;18.836;2023-04-24T00:01:47;23.00;22.00;14.00
77692;PMS5003;66984;47.404;18.836;2023-04-24T00:02:50;23.75;23.25;14.75
77692;PMS5003;66984;47.404;18.836;2023-04-24T00:03:53;23.50;23.00;15.00
77692;PMS5003;66984;47.404;18.836;2023-04-24T00:04:57;24.00;22.50;14.00
77692;PMS5003;66984;47.404;18.836;2023-04-24T00:06:04;25.00;23.50;14.00
77692;PMS5003;66984;47.404;18.836;2023-04-24T00:07:10;25.25;24.00;14.00
77692;PMS5003;66984;47.404;18.836;2023-04-24T00:08:15;29.00;27.00;17.25
77692;PMS5003;66984;47.404;18.836;2023-04-24T00:09:18;25.25;25.00;18.00
77692;PMS5003;66984;47.404;18.836;2023-04-24T00:10:21;24.00;24.00;17.00
77692;PMS5003;66984;47.404;18.836;2023-04-24T00:11:24;26.00;26.00;17.00
77692;PMS5003;66984;47.404;18.836;2023-04-24T00:12:27;27.00;26.50;18.00
77692;PMS5003;66984;47.404;18.836;2023-04-24T00:13:29;28.50;27.00;18.00
77692;PMS5003;66984;47.404;18.836;2023-04-24T00:14:33;29.00;28.00;19.00
77692;PMS5003;66984;47.404;18.836;2023-04-24T00:15:37;28.00;26.75;18.00
77692;PMS5003;66984;47.404;18.836;2023-04-24T00:16:40;28.00;27.00;18.00
77692;PMS5003;66984;47.404;18.836;2023-04-24T00:17:43;25.00;25.00;18.00
77692;PMS5003;66984;47.404;18.836;2023-04-24T00:18:46;28.25;27.00;17.00
77692;PMS5003;66984;47.404;18.836;2023-04-24T00:19:50;27.00;26.00;15.00
77692;PMS5003;66984;47.404;18.836;2023-04-24T00:20:53;28.00;26.00;14.50
77692;PMS5003;66984;47.404;18.836;2023-04-24T00:21:56;26.25;25.25;15.00
77692;PMS5003;66984;47.404;18.836;2023-04-24T00:22:59;26.00;24.00;16.00
77692;PMS5003;66984;47.404;18.836;2023-04-24T00:24:02;26.00;24.00;15.00
77692;PMS5003;66984;47.404;18.836;2023-04-24T00:25:05;23.75;22.00;16.00
77692;PMS5003;66984;47.404;18.836;2023-04-24T00:26:08;24.00;23.00;17.00
77692;PMS5003;66984;47.404;18.836;2023-04-24T00:27:11;25.00;23.00;17.00
77692;PMS5003;66984;47.404;18.836;2023-04-24T00:28:14;23.50;23.00;15.00
77692;PMS5003;66984;47.404;18.836;2023-04-24T00:29:17;24.50;23.25;15.00
77692;PMS5003;66984;47.404;18.836;2023-04-24T00:30:19;28.00;26.25;17.00
77692;PMS5003;66984;47.404;18.836;2023-04-24T00:31:22;26.50;23.50;17.00
77692;PMS5003;66984;47.404;18.836;2023-04-24T00:32:25;24.25;23.75;16.00
77692;PMS5003;66984;47.404;18.836;2023-04-24T00:33:28;25.00;24.00;16.50
77692;PMS5003;66984;47.404;18.836;2023-04-24T00:34:31;24.00;23.00;16.00
77692;PMS5003;66984;47.404;18.836;2023-04-24T00:35:35;25.00;23.00;16.00
77692;PMS5003;66984;47.404;18.836;2023-04-24T00:36:37;25.00;23.00;16.00
77692;PMS5003;66984;47.404;18.836;2023-04-24T00:37:40;24.00;24.00;16.00
77692;PMS5003;66984;47.404;18.836;2023-04-24T00:38:43;24.00;23.00;15.00
77692;PMS5003;66984;47.404;18.836;2023-04-24T00:39:47;25.00;24.00;16.00
77692;PMS5003;66984;47.404;18.836;2023-04-24T00:40:50;23.25;22.50;16.00
77692;PMS5003;66984;47.404;18.836;2023-04-24T00:41:53;24.00;24.00;16.00
77692;PMS5003;66984;47.404;18.836;2023-04-24T00:42:56;25.00;24.00;16.00
77692;PMS5003;66984;47.404;18.836;2023-04-24T00:43:59;24.50;24.00;15.00
77692;PMS5003;66984;47.404;18.836;2023-04-24T00:45:02;25.00;25.00;16.00
77692;PMS5003;66984;47.404;18.836;2023-04-24T00:46:05;27.50;26.75;16.50
77692;PMS5003;66984;47.404;18.836;2023-04-24T00:47:08;25.50;25.00;16.50
77692;PMS5003;66984;47.404;18.836;2023-04-24T00:48:13;27.00;26.00;17.00
77692;PMS5003;66984;47.404;18.836;2023-04-24T00:49:23;25.00;24.25;17.00
77692;PMS5003;66984;47.404;18.836;2023-04-24T00:50:31;24.00;23.00;17.00
77692;PMS5003;66984;47.404;18.836;2023-04-24T00:51:39;25.00;25.00;16.50
77692;PMS5003;66984;47.404;18.836;2023-04-24T00:52:43;26.00;24.00;17.00
77692;PMS5003;66984;47.404;18.836;2023-04-24T00:53:46;26.00;23.00;16.00
77692;PMS5003;66984;47.404;18.836;2023-04-24T00:54:49;24.00;21.00;16.00
77692;PMS5003;66984;47.404;18.836;2023-04-24T00:55:52;24.00;22.00;14.00
77692;PMS5003;66984;47.404;18.836;2023-04-24T00:56:55;24.00;23.00;15.00
77692;PMS5003;66984;47.404;18.836;2023-04-24T00:57:59;22.25;22.00;14.00
77692;PMS5003;66984;47.404;18.836;2023-04-24T00:59:02;25.75;24.75;14.00
77692;PMS5003;66984;47.404;18.836;2023-04-24T01:00:06;26.00;24.00;15.50
77692;PMS5003;66984;47.404;18.836;2023-04-24T01:01:12;24.25;23.50;16.50
77692;PMS5003;66984;47.404;18.836;2023-04-24T01:02:16;25.00;24.00;17.00
77692;PMS5003;66984;47.404;18.836;2023-04-24T01:03:20;23.00;23.00;16.00
77692;PMS5003;66984;47.404;18.836;2023-04-24T01:04:25;25.00;24.00;18.00
77692;PMS5003;66984;47.404;18.836;2023-04-24T01:05:28;26.00;24.00;17.00
77692;PMS5003;66984;47.404;18.836;2023-04-24T01:06:32;25.25;24.00;16.00
77692;PMS5003;66984;47.404;18.836;2023-04-24T01:07:36;27.00;26.00;17.00
77692;PMS5003;66984;47.404;18.836;2023-04-24T01:08:40;26.50;25.25;16.00
77692;PMS5003;66984;47.404;18.836;2023-04-24T01:09:44;29.00;26.75;15.00
77692;PMS5003;66984;47.404;18.836;2023-04-24T01:10:51;27.00;27.00;16.00
77692;PMS5003;66984;47.404;18.836;2023-04-24T01:11:55;26.00;26.00;14.00
77692;PMS5003;66984;47.404;18.836;2023-04-24T01:12:58;26.75;26.00;15.00
77692;PMS5003;66984;47.404;18.836;2023-04-24T01:14:02;27.00;26.00;15.00
77692;PMS5003;66984;47.404;18.836;2023-04-24T01:15:06;27.50;27.00;17.00
77692;PMS5003;66984;47.404;18.836;2023-04-24T01:16:10;27.50;27.00;17.00
77692;PMS5003;66984;47.404;18.836;2023-04-24T01:17:13;27.50;27.00;17.25
77692;PMS5003;66984;47.404;18.836;2023-04-24T01:18:16;26.25;26.00;16.00
77692;PMS5003;66984;47.404;18.836;2023-04-24T01:19:18;26.75;25.75;17.00
77692;PMS5003;66984;47.404;18.836;2023-04-24T01:20:22;27.50;25.00;16.00
77692;PMS5003;66984;47.404;18.836;2023-04-24T01:21:27;25.75;24.00;17.00
77692;PMS5003;66984;47.404;18.836;2023-04-24T01:22:33;25.25;24.00;16.00
77692;PMS5003;66984;47.404;18.836;2023-04-24T01:23:37;25.00;23.00;15.00
77692;PMS5003;66984;47.404;18.836;2023-04-24T01:24:40;25.50;24.00;16.25
77692;PMS5003;66984;47.404;18.836;2023-04-24T01:25:44;27.00;25.00;16.00
77692;PMS5003;66984;47.404;18.836;2023-04-24T01:26:47;24.25;23.25;17.00
77692;PMS5003;66984;47.404;18.836;2023-04-24T01:27:50;25.00;23.00;17.00
77692;PMS5003;66984;47.404;18.836;2023-04-24T01:28:53;26.75;25.00;17.00
77692;PMS5003;66984;47.404;18.836;2023-04-24T01:29:57;26.25;26.00;15.75
77692;PMS5003;66984;47.404;18.836;2023-04-24T01:31:00;25.00;25.00;16.50
77692;PMS5003;66984;47.404;18.836;2023-04-24T01:32:03;28.00;26.00;17.50
77692;PMS5003;66984;47.404;18.836;2023-04-24T01:33:07;24.75;24.00;18.00
77692;PMS5003;66984;47.404;18.836;2023-04-24T01:34:10;25.00;25.00;17.00
77692;PMS5003;66984;47.404;18.836;2023-04-24T01:35:13;24.00;24.00;16.00
77692;PMS5003;66984;47.404;18.836;2023-04-24T01:36:16;25.00;23.25;15.00
77692;PMS5003;66984;47.404;18.836;2023-04-24T01:37:21;24.25;24.00;15.75
77692;PMS5003;66984;47.404;18.836;2023-04-24T01:38:24;26.25;26.00;17.75
77692;PMS5003;66984;47.404;18.836;2023-04-24T01:39:27;25.00;25.00;18.00
77692;PMS5003;66984;47.404;18.836;2023-04-24T01:40:31;24.75;24.25;15.00
77692;PMS5003;66984;47.404;18.836;2023-04-24T01:41:34;25.00;25.00;16.00
77692;PMS5003;66984;47.404;18.836;2023-04-24T01:42:37;25.50;23.00;15.00
77692;PMS5003;66984;47.404;18.836;2023-04-24T01:43:41;25.00;22.50;15.00
77692;PMS5003;66984;47.404;18.836;2023-04-24T01:44:43;27.00;25.00;14.00
77692;PMS5003;66984;47.404;18.836;2023-04-24T01:45:47;25.00;23.25;14.00
77692;PMS5003;66984;47.404;18.836;2023-04-24T01:46:50;24.00;23.00;14.00
77692;PMS5003;66984;47.404;18.836;2023-04-24T01:47:53;23.00;22.00;14.00
77692;PMS5003;66984;47.404;18.836;2023-04-24T01:48:56;23.00;22.00;14.00
77692;PMS5003;66984;47.404;18.836;2023-04-24T01:49:59;22.00;20.00;12.00
77692;PMS5003;66984;47.404;18.836;2023-04-24T01:51:02;21.00;21.00;14.00
77692;PMS5003;66984;47.404;18.836;2023-04-24T01:52:05;22.00;21.00;13.00
77692;PMS5003;66984;47.404;18.836;2023-04-24T01:53:08;22.00;21.00;13.00
77692;PMS5003;66984;47.404;18.836;2023-04-24T01:54:11;23.00;21.00;15.00
77692;PMS5003;66984;47.404;18.836;2023-04-24T01:55:14;22.25;19.00;13.00
77692;PMS5003;66984;47.404;18.836;2023-04-24T01:56:19;20.00;19.00;13.00
77692;PMS5003;66984;47.404;18.836;2023-04-24T01:57:24;19.00;18.50;11.00
77692;PMS5003;66984;47.404;18.836;2023-04-24T01:58:27;18.50;17.75;9.00
77692;PMS5003;66984;47.404;18.836;2023-04-24T01:59:30;20.00;19.75;10.00
77692;PMS5003;66984;47.404;18.836;2023-04-24T02:00:35;20.00;19.00;11.00
77692;PMS5003;66984;47.404;18.836;2023-04-24T02:01:38;18.50;18.00;11.00
77692;PMS5003;66984;47.404;18.836;2023-04-24T02:02:42;20.25;19.25;10.00
77692;PMS5003;66984;47.404;18.836;2023-04-24T02:03:48;22.00;21.25;11.00
77692;PMS5003;66984;47.404;18.836;2023-04-24T02:04:51;19.00;19.00;10.25
77692;PMS5003;66984;47.404;18.836;2023-04-24T02:05:54;19.00;19.00;10.00
77692;PMS5003;66984;47.404;18.836;2023-04-24T02:06:57;20.00;19.00;10.25
77692;PMS5003;66984;47.404;18.836;2023-04-24T02:08:00;21.00;21.00;10.50
77692;PMS5003;66984;47.404;18.836;2023-04-24T02:09:03;20.00;20.00;13.00
77692;PMS5003;66984;47.404;18.836;2023-04-24T02:10:06;21.00;21.00;12.00
77692;PMS5003;66984;47.404;18.836;2023-04-24T02:11:09;20.25;20.00;12.25
77692;PMS5003;66984;47.404;18.836;2023-04-24T02:12:12;20.00;20.00;12.00
77692;PMS5003;66984;47.404;18.836;2023-04-24T02:13:15;21.25;21.25;11.00
77692;PMS5003;66984;47.404;18.836;2023-04-24T02:14:18;20.25;20.25;11.50
77692;PMS5003;66984;47.404;18.836;2023-04-24T02:15:20;23.00;21.75;14.00
77692;PMS5003;66984;47.404;18.836;2023-04-24T02:16:23;22.00;22.00;15.00
77692;PMS5003;66984;47.404;18.836;2023-04-24T02:17:27;21.00;21.00;14.00
77692;PMS5003;66984;47.404;18.836;2023-04-24T02:18:30;20.25;20.00;13.25
77692;PMS5003;66984;47.404;18.836;2023-04-24T02:19:33;21.50;20.25;14.00
77692;PMS5003;66984;47.404;18.836;2023-04-24T02:20:35;21.00;20.00;13.00
77692;PMS5003;66984;47.404;18.836;2023-04-24T02:21:39;22.00;22.00;11.75
77692;PMS5003;66984;47.404;18.836;2023-04-24T02:22:42;22.00;21.50;13.25
77692;PMS5003;66984;47.404;18.836;2023-04-24T02:23:45;23.25;22.25;14.00
77692;PMS5003;66984;47.404;18.836;2023-04-24T02:24:48;22.25;21.25;14.00
77692;PMS5003;66984;47.404;18.836;2023-04-24T02:25:50;21.75;20.00;13.00
77692;PMS5003;66984;47.404;18.836;2023-04-24T02:26:55;24.00;23.00;15.00
77692;PMS5003;66984;47.404;18.836;2023-04-24T02:27:58;22.00;22.00;15.00
77692;PMS5003;66984;47.404;18.836;2023-04-24T02:29:01;24.00;22.50;15.00
77692;PMS5003;66984;47.404;18.836;2023-04-24T02:30:04;23.00;23.00;15.00
77692;PMS5003;66984;47.404;18.836;2023-04-24T02:31:08;23.00;22.75;14.50
77692;PMS5003;66984;47.404;18.836;2023-04-24T02:32:11;27.00;24.50;15.25
77692;PMS5003;66984;47.404;18.836;2023-04-24T02:33:14;27.00;25.00;16.50
77692;PMS5003;66984;47.404;18.836;2023-04-24T02:34:17;26.50;25.00;18.00
77692;PMS5003;66984;47.404;18.836;2023-04-24T02:35:20;25.00;24.00;17.00
77692;PMS5003;66984;47.404;18.836;2023-04-24T02:36:23;24.00;22.00;15.50
77692;PMS5003;66984;47.404;18.836;2023-04-24T02:37:26;22.25;22.00;13.75
77692;PMS5003;66984;47.404;18.836;2023-04-24T02:38:29;22.50;21.50;12.75
77692;PMS5003;66984;47.404;18.836;2023-04-24T02:39:32;23.50;23.00;14.00
77692;PMS5003;66984;47.404;18.836;2023-04-24T02:40:35;24.00;22.00;14.00
77692;PMS5003;66984;47.404;18.836;2023-04-24T02:41:38;21.00;21.00;13.50
77692;PMS5003;66984;47.404;18.836;2023-04-24T02:42:41;21.00;20.75;14.00
77692;PMS5003;66984;47.404;18.836;2023-04-24T02:43:44;21.00;21.00;14.00
77692;PMS5003;66984;47.404;18.836;2023-04-24T02:44:47;19.50;19.50;12.00
77692;PMS5003;66984;47.404;18.836;2023-04-24T02:45:49;19.00;19.00;10.50
77692;PMS5003;66984;47.404;18.836;2023-04-24T02:46:52;22.00;21.00;12.00
77692;PMS5003;66984;47.404;18.836;2023-04-24T02:47:55;21.25;20.25;13.00
77692;PMS5003;66984;47.404;18.836;2023-04-24T02:48:58;22.00;22.00;12.00
77692;PMS5003;66984;47.404;18.836;2023-04-24T02:50:02;21.25;20.25;13.00
77692;PMS5003;66984;47.404;18.836;2023-04-24T02:51:05;20.00;20.00;13.25
77692;PMS5003;66984;47.404;18.836;2023-04-24T02:52:09;20.50;20.25;13.00
77692;PMS5003;66984;47.404;18.836;2023-04-24T02:53:12;21.00;21.00;12.00
77692;PMS5003;66984;47.404;18.836;2023-04-24T02:54:14;22.00;21.00;10.00
77692;PMS5003;66984;47.404;18.836;2023-04-24T02:55:17;23.75;23.25;13.00
77692;PMS5003;66984;47.404;18.836;2023-04-24T02:56:20;22.25;21.00;12.00
77692;PMS5003;66984;47.404;18.836;2023-04-24T02:57:24;22.25;21.25;13.00
77692;PMS5003;66984;47.404;18.836;2023-04-24T02:58:27;20.00;20.00;11.00
77692;PMS5003;66984;47.404;18.836;2023-04-24T02:59:30;19.00;19.00;10.00
77692;PMS5003;66984;47.404;18.836;2023-04-24T03:00:33;20.00;19.00;11.00
77692;PMS5003;66984;47.404;18.836;2023-04-24T03:01:36;20.00;18.50;10.00
77692;PMS5003;66984;47.404;18.836;2023-04-24T03:02:39;21.00;21.00;10.25
77692;PMS5003;66984;47.404;18.836;2023-04-24T03:03:46;19.00;19.00;10.00
77692;PMS5003;66984;47.404;18.836;2023-04-24T03:04:49;18.50;18.50;9.00
77692;PMS5003;66984;47.404;18.836;2023-04-24T03:05:52;20.75;18.75;9.75
77692;PMS5003;66984;47.404;18.836;2023-04-24T03:06:55;20.00;19.00;9.00
77692;PMS5003;66984;47.404;18.836;2023-04-24T03:07:58;19.75;19.25;9.25
77692;PMS5003;66984;47.404;18.836;2023-04-24T03:09:01;21.00;21.00;10.00
77692;PMS5003;66984;47.404;18.836;2023-04-24T03:10:04;21.00;20.50;10.00
77692;PMS5003;66984;47.404;18.836;2023-04-24T03:11:08;20.00;19.00;11.00
77692;PMS5003;66984;47.404;18.836;2023-04-24T03:12:11;19.25;19.25;11.00
77692;PMS5003;66984;47.404;18.836;2023-04-24T03:13:13;20.75;20.00;11.00
77692;PMS5003;66984;47.404;18.836;2023-04-24T03:14:18;21.00;20.00;12.00
77692;PMS5003;66984;47.404;18.836;2023-04-24T03:15:20;22.75;21.00;11.00
77692;PMS5003;66984;47.404;18.836;2023-04-24T03:16:23;23.00;22.75;11.00
77692;PMS5003;66984;47.404;18.836;2023-04-24T03:17:26;21.00;21.00;10.00
77692;PMS5003;66984;47.404;18.836;2023-04-24T03:18:29;19.75;18.75;10.00
77692;PMS5003;66984;47.404;18.836;2023-04-24T03:19:33;19.25;19.00;10.00
77692;PMS5003;66984;47.404;18.836;2023-04-24T03:20:35;22.00;19.00;10.00
77692;PMS5003;66984;47.404;18.836;2023-04-24T03:21:39;24.00;22.00;10.25
77692;PMS5003;66984;47.404;18.836;2023-04-24T03:22:43;23.00;21.00;11.00
77692;PMS5003;66984;47.404;18.836;2023-04-24T03:23:46;22.00;21.00;12.00
77692;PMS5003;66984;47.404;18.836;2023-04-24T03:24:49;21.00;20.00;13.00
77692;PMS5003;66984;47.404;18.836;2023-04-24T03:25:52;20.75;19.50;12.00
77692;PMS5003;66984;47.404;18.836;2023-04-24T03:26:55;20.00;20.00;12.00
77692;PMS5003;66984;47.404;18.836;2023-04-24T03:27:59;21.00;20.00;12.00
77692;PMS5003;66984;47.404;18.836;2023-04-24T03:29:02;20.00;20.00;10.00
77692;PMS5003;66984;47.404;18.836;2023-04-24T03:30:06;20.00;20.00;12.00
77692;PMS5003;66984;47.404;18.836;2023-04-24T03:31:09;20.00;20.00;12.00
77692;PMS5003;66984;47.404;18.836;2023-04-24T03:32:12;19.00;19.00;13.00
77692;PMS5003;66984;47.404;18.836;2023-04-24T03:33:15;20.00;19.00;12.00
77692;PMS5003;66984;47.404;18.836;2023-04-24T03:34:18;19.25;19.25;12.00
77692;PMS5003;66984;47.404;18.836;2023-04-24T03:35:21;20.00;20.00;12.00
77692;PMS5003;66984;47.404;18.836;2023-04-24T03:36:24;21.00;21.00;12.00
77692;PMS5003;66984;47.404;18.836;2023-04-24T03:37:29;20.00;20.00;12.00
77692;PMS5003;66984;47.404;18.836;2023-04-24T03:38:32;21.00;20.00;12.00
77692;PMS5003;66984;47.404;18.836;2023-04-24T03:39:34;21.75;21.75;12.00
77692;PMS5003;66984;47.404;18.836;2023-04-24T03:40:37;20.75;20.75;10.75
77692;PMS5003;66984;47.404;18.836;2023-04-24T03:41:40;21.25;21.00;12.00
77692;PMS5003;66984;47.404;18.836;2023-04-24T03:42:43;23.00;22.00;14.00
77692;PMS5003;66984;47.404;18.836;2023-04-24T03:43:46;22.00;21.00;13.00
77692;PMS5003;66984;47.404;18.836;2023-04-24T03:44:49;22.00;20.75;12.00
77692;PMS5003;66984;47.404;18.836;2023-04-24T03:45:52;20.75;20.00;11.75
77692;PMS5003;66984;47.404;18.836;2023-04-24T03:46:55;21.75;20.00;12.00
77692;PMS5003;66984;47.404;18.836;2023-04-24T03:47:58;21.75;20.00;11.00
77692;PMS5003;66984;47.404;18.836;2023-04-24T03:49:01;22.00;20.00;11.00
77692;PMS5003;66984;47.404;18.836;2023-04-24T03:50:03;23.00;21.00;12.50
77692;PMS5003;66984;47.404;18.836;2023-04-24T03:51:07;21.50;20.00;12.00
77692;PMS5003;66984;47.404;18.836;2023-04-24T03:52:10;21.00;20.75;13.00
77692;PMS5003;66984;47.404;18.836;2023-04-24T03:53:12;21.00;21.00;13.00
77692;PMS5003;66984;47.404;18.836;2023-04-24T03:54:15;21.00;20.00;13.00
77692;PMS5003;66984;47.404;18.836;2023-04-24T03:55:18;21.00;20.00;12.00
77692;PMS5003;66984;47.404;18.836;2023-04-24T03:56:21;22.00;21.25;12.00
77692;PMS5003;66984;47.404;18.836;2023-04-24T03:57:24;23.00;23.00;12.75
77692;PMS5003;66984;47.404;18.836;2023-04-24T03:58:27;23.00;22.50;13.50
77692;PMS5003;66984;47.404;18.836;2023-04-24T03:59:30;25.00;23.00;13.00
77692;PMS5003;66984;47.404;18.836;2023-04-24T04:00:33;22.25;21.25;14.00
77692;PMS5003;66984;47.404;18.836;2023-04-24T04:01:37;21.75;21.00;12.25
77692;PMS5003;66984;47.404;18.836;2023-04-24T04:02:42;22.25;21.25;13.00
77692;PMS5003;66984;47.404;18.836;2023-04-24T04:03:45;23.00;22.00;12.00
77692;PMS5003;66984;47.404;18.836;2023-04-24T04:04:48;23.50;23.50;13.00
77692;PMS5003;66984;47.404;18.836;2023-04-24T04:05:52;24.00;24.00;14.00
77692;PMS5003;66984;47.404;18.836;2023-04-24T04:06:55;22.50;22.50;14.00
77692;PMS5003;66984;47.404;18.836;2023-04-24T04:07:58;23.00;21.00;14.00
77692;PMS5003;66984;47.404;18.836;2023-04-24T04:09:01;24.50;22.50;14.00
77692;PMS5003;66984;47.404;18.836;2023-04-24T04:10:04;25.00;24.00;15.50
77692;PMS5003;66984;47.404;18.836;2023-04-24T04:11:09;22.75;22.00;14.75
77692;PMS5003;66984;47.404;18.836;2023-04-24T04:12:12;24.25;23.25;15.00
77692;PMS5003;66984;47.404;18.836;2023-04-24T04:13:15;24.00;23.25;14.00
77692;PMS5003;66984;47.404;18.836;2023-04-24T04:14:18;24.00;23.00;16.00
77692;PMS5003;66984;47.404;18.836;2023-04-24T04:15:20;25.00;24.00;16.00
77692;PMS5003;66984;47.404;18.836;2023-04-24T04:16:23;23.00;21.00;15.00
77692;PMS5003;66984;47.404;18.836;2023-04-24T04:17:27;21.75;21.75;16.00
77692;PMS5003;66984;47.404;18.836;2023-04-24T04:18:30;24.00;23.00;15.00
77692;PMS5003;66984;47.404;18.836;2023-04-24T04:19:33;25.00;22.00;12.25
77692;PMS5003;66984;47.404;18.836;2023-04-24T04:20:36;26.25;24.75;14.50
77692;PMS5003;66984;47.404;18.836;2023-04-24T04:21:39;28.00;27.00;16.00
77692;PMS5003;66984;47.404;18.836;2023-04-24T04:22:42;27.00;26.75;17.00
77692;PMS5003;66984;47.404;18.836;2023-04-24T04:23:45;26.00;25.00;16.00
77692;PMS5003;66984;47.404;18.836;2023-04-24T04:24:47;23.00;23.00;15.00
77692;PMS5003;66984;47.404;18.836;2023-04-24T04:25:51;23.00;23.00;15.00
77692;PMS5003;66984;47.404;18.836;2023-04-24T04:26:54;27.25;26.25;15.75
77692;PMS5003;66984;47.404;18.836;2023-04-24T04:27:58;26.00;25.00;16.00
77692;PMS5003;66984;47.404;18.836;2023-04-24T04:29:02;25.25;24.00;16.00
77692;PMS5003;66984;47.404;18.836;2023-04-24T04:30:06;24.00;24.00;15.00
77692;PMS5003;66984;47.404;18.836;2023-04-24T04:31:09;24.00;24.00;14.00
77692;PMS5003;66984;47.404;18.836;2023-04-24T04:32:12;25.00;24.00;13.00
77692;PMS5003;66984;47.404;18.836;2023-04-24T04:33:15;23.00;22.25;13.25
77692;PMS5003;66984;47.404;18.836;2023-04-24T04:34:18;24.00;23.00;16.00
77692;PMS5003;66984;47.404;18.836;2023-04-24T04:35:22;26.00;25.00;15.25
77692;PMS5003;66984;47.404;18.836;2023-04-24T04:36:24;26.00;25.00;16.00
77692;PMS5003;66984;47.404;18.836;2023-04-24T04:37:28;26.50;24.00;17.00
77692;PMS5003;66984;47.404;18.836;2023-04-24T04:38:32;26.00;24.00;17.00
77692;PMS5003;66984;47.404;18.836;2023-04-24T04:39:35;26.00;25.00;17.00
77692;PMS5003;66984;47.404;18.836;2023-04-24T04:40:38;26.25;26.00;16.00
77692;PMS5003;66984;47.404;18.836;2023-04-24T04:41:42;26.50;25.50;16.00
77692;PMS5003;66984;47.404;18.836;2023-04-24T04:42:45;25.50;25.50;15.75
77692;PMS5003;66984;47.404;18.836;2023-04-24T04:43:48;25.50;25.00;17.00
77692;PMS5003;66984;47.404;18.836;2023-04-24T04:44:51;25.50;24.00;16.50
77692;PMS5003;66984;47.404;18.836;2023-04-24T04:45:54;24.00;24.00;16.00
77692;PMS5003;66984;47.404;18.836;2023-04-24T04:46:58;25.00;24.00;16.00
77692;PMS5003;66984;47.404;18.836;2023-04-24T04:48:02;25.00;23.00;15.00
77692;PMS5003;66984;47.404;18.836;2023-04-24T04:49:05;25.50;23.00;15.00
77692;PMS5003;66984;47.404;18.836;2023-04-24T04:50:08;26.00;22.00;15.00
77692;PMS5003;66984;47.404;18.836;2023-04-24T04:51:11;25.00;23.00;14.00
77692;PMS5003;66984;47.404;18.836;2023-04-24T04:52:15;25.50;25.50;13.50
77692;PMS5003;66984;47.404;18.836;2023-04-24T04:53:19;25.50;25.00;15.00
77692;PMS5003;66984;47.404;18.836;2023-04-24T04:54:22;24.75;24.75;15.00
77692;PMS5003;66984;47.404;18.836;2023-04-24T04:55:25;23.25;23.25;14.75
77692;PMS5003;66984;47.404;18.836;2023-04-24T04:56:28;25.50;25.25;16.00
77692;PMS5003;66984;47.404;18.836;2023-04-24T04:57:31;25.50;25.00;16.00
77692;PMS5003;66984;47.404;18.836;2023-04-24T04:58:34;25.50;24.50;15.25
77692;PMS5003;66984;47.404;18.836;2023-04-24T04:59:37;25.00;24.00;16.00
77692;PMS5003;66984;47.404;18.836;2023-04-24T05:00:39;23.25;23.25;15.75
77692;PMS5003;66984;47.404;18.836;2023-04-24T05:01:43;24.00;24.00;15.00
77692;PMS5003;66984;47.404;18.836;2023-04-24T05:02:46;24.75;24.00;15.25
77692;PMS5003;66984;47.404;18.836;2023-04-24T05:03:49;27.00;25.50;16.00
77692;PMS5003;66984;47.404;18.836;2023-04-24T05:04:53;27.00;26.00;16.00
77692;PMS5003;66984;47.404;18.836;2023-04-24T05:05:57;28.00;26.50;16.00
77692;PMS5003;66984;47.404;18.836;2023-04-24T05:07:00;27.00;26.00;17.00
77692;PMS5003;66984;47.404;18.836;2023-04-24T05:08:03;25.00;24.00;17.00
77692;PMS5003;66984;47.404;18.836;2023-04-24T05:09:11;26.00;26.00;16.50
77692;PMS5003;66984;47.404;18.836;2023-04-24T05:10:14;27.50;26.00;17.50
77692;PMS5003;66984;47.404;18.836;2023-04-24T05:11:17;26.00;25.50;17.00
77692;PMS5003;66984;47.404;18.836;2023-04-24T05:12:19;25.50;25.00;16.50
77692;PMS5003;66984;47.404;18.836;2023-04-24T05:13:22;25.75;25.50;16.50
77692;PMS5003;66984;47.404;18.836;2023-04-24T05:14:39;26.00;25.00;16.50
77692;PMS5003;66984;47.404;18.836;2023-04-24T05:15:42;27.00;26.00;16.50
77692;PMS5003;66984;47.404;18.836;2023-04-24T05:16:46;26.00;26.00;16.75
77692;PMS5003;66984;47.404;18.836;2023-04-24T05:17:49;26.00;25.50;16.00
77692;PMS5003;66984;47.404;18.836;2023-04-24T05:18:52;26.00;25.50;17.00
77692;PMS5003;66984;47.404;18.836;2023-04-24T05:19:55;26.00;26.00;17.00
77692;PMS5003;66984;47.404;18.836;2023-04-24T05:20:58;26.00;26.00;17.00
77692;PMS5003;66984;47.404;18.836;2023-04-24T05:22:01;26.00;25.00;16.50
77692;PMS5003;66984;47.404;18.836;2023-04-24T05:23:05;27.00;26.00;17.00
77692;PMS5003;66984;47.404;18.836;2023-04-24T05:24:08;25.50;25.25;17.00
77692;PMS5003;66984;47.404;18.836;2023-04-24T05:25:11;27.00;26.00;16.50
77692;PMS5003;66984;47.404;18.836;2023-04-24T05:26:14;26.00;26.00;16.00
77692;PMS5003;66984;47.404;18.836;2023-04-24T05:27:18;25.00;25.00;16.00
77692;PMS5003;66984;47.404;18.836;2023-04-24T05:28:21;25.00;24.25;16.75
77692;PMS5003;66984;47.404;18.836;2023-04-24T05:29:23;26.75;25.50;17.00
77692;PMS5003;66984;47.404;18.836;2023-04-24T05:30:28;26.25;25.00;16.00
77692;PMS5003;66984;47.404;18.836;2023-04-24T05:31:31;25.50;25.50;16.00
77692;PMS5003;66984;47.404;18.836;2023-04-24T05:32:34;25.50;24.50;15.00
77692;PMS5003;66984;47.404;18.836;2023-04-24T05:33:37;26.25;24.50;15.75
77692;PMS5003;66984;47.404;18.836;2023-04-24T05:34:40;26.75;25.75;16.50
77692;PMS5003;66984;47.404;18.836;2023-04-24T05:35:43;26.00;24.00;16.00
77692;PMS5003;66984;47.404;18.836;2023-04-24T05:36:49;26.50;26.00;16.50
77692;PMS5003;66984;47.404;18.836;2023-04-24T05:37:53;25.50;25.00;16.00
77692;PMS5003;66984;47.404;18.836;2023-04-24T05:38:55;27.75;26.50;17.00
77692;PMS5003;66984;47.404;18.836;2023-04-24T05:39:58;28.75;26.00;17.00
77692;PMS5003;66984;47.404;18.836;2023-04-24T05:41:01;26.00;26.00;17.00
77692;PMS5003;66984;47.404;18.836;2023-04-24T05:42:04;27.00;26.00;17.00
77692;PMS5003;66984;47.404;18.836;2023-04-24T05:43:07;27.00;26.00;17.00
77692;PMS5003;66984;47.404;18.836;2023-04-24T05:44:10;29.00;27.25;17.00
77692;PMS5003;66984;47.404;18.836;2023-04-24T05:45:13;26.00;26.00;17.00
77692;PMS5003;66984;47.404;18.836;2023-04-24T05:46:19;26.25;26.00;16.50
77692;PMS5003;66984;47.404;18.836;2023-04-24T05:47:22;28.00;26.00;17.00
77692;PMS5003;66984;47.404;18.836;2023-04-24T05:48:25;27.25;25.50;17.00
77692;PMS5003;66984;47.404;18.836;2023-04-24T05:49:28;26.00;24.75;16.50
77692;PMS5003;66984;47.404;18.836;2023-04-24T05:50:31;28.50;26.00;17.00